HAZ8503 ZGGG-UCFM
Flight info
| Callsign | HAZ8503 |
|---|---|
| Flight time | 5h 48m |
| Altitude | 32100 |
| Route | AGVIL W24 OSNOV G586 QP B330 ELKAL W179 IGLUD/K0887S1040 W179 IGNAK/K0870S1010 W179 WFX/K0865S1040 W179 OMBON Y1 MEPEP/K0852S1100 Y1 SADAN W186 KAMUD/K0845F380 |
| Aircraft | B738/M-SDE2E3FGHIRWXY/LB1 |
Departure
| Time | 2026-04-13 02:31 |
|---|---|
| Airport | Guangzhou Baiyun International Airport (ZGGG) |
Arrival
| Time | 2026-04-13 08:20 |
|---|---|
| Airport | Manas International Airport (UCFM) |
| Time | Latitude | Longitude | Altitude | Speed | Heading |
|---|---|---|---|---|---|
| 2026-04-13 02:08 | 23.38429 | 113.30154 | 57 ft | 0 kts | 232° |
| 2026-04-13 02:17 | 23.38437 | 113.30164 | 53 ft | 3 kts | 232° |
| 2026-04-13 02:18 | 23.38453 | 113.30187 | 51 ft | 4 kts | 232° |
| 2026-04-13 02:18 | 23.38469 | 113.30207 | 54 ft | 4 kts | 205° |
| 2026-04-13 02:18 | 23.38493 | 113.30209 | 49 ft | 4 kts | 161° |
| 2026-04-13 02:18 | 23.38517 | 113.30197 | 50 ft | 4 kts | 144° |
| 2026-04-13 02:19 | 23.38523 | 113.30192 | 52 ft | 1 kts | 142° |
| 2026-04-13 02:21 | 23.38511 | 113.30203 | 50 ft | 4 kts | 141° |
| 2026-04-13 02:22 | 23.38478 | 113.30234 | 51 ft | 9 kts | 141° |
| 2026-04-13 02:22 | 23.38421 | 113.30285 | 52 ft | 12 kts | 131° |
| 2026-04-13 02:22 | 23.38385 | 113.30385 | 54 ft | 16 kts | 101° |
| 2026-04-13 02:22 | 23.38452 | 113.30471 | 53 ft | 19 kts | 15° |
| 2026-04-13 02:23 | 23.38591 | 113.30508 | 54 ft | 22 kts | 14° |
| 2026-04-13 02:23 | 23.38752 | 113.30553 | 52 ft | 26 kts | 14° |
| 2026-04-13 02:23 | 23.38929 | 113.30600 | 56 ft | 26 kts | 13° |
| 2026-04-13 02:23 | 23.39100 | 113.30646 | 53 ft | 25 kts | 14° |
| 2026-04-13 02:24 | 23.39261 | 113.30689 | 54 ft | 23 kts | 13° |
| 2026-04-13 02:24 | 23.39413 | 113.30732 | 50 ft | 22 kts | 16° |
| 2026-04-13 02:24 | 23.39562 | 113.30771 | 50 ft | 22 kts | 14° |
| 2026-04-13 02:24 | 23.39706 | 113.30811 | 53 ft | 21 kts | 13° |
| 2026-04-13 02:25 | 23.39847 | 113.30848 | 51 ft | 20 kts | 13° |
| 2026-04-13 02:25 | 23.39982 | 113.30890 | 56 ft | 20 kts | 11° |
| 2026-04-13 02:25 | 23.40115 | 113.30919 | 53 ft | 19 kts | 13° |
| 2026-04-13 02:25 | 23.40242 | 113.30954 | 56 ft | 19 kts | 14° |
| 2026-04-13 02:26 | 23.40366 | 113.30988 | 54 ft | 18 kts | 14° |
| 2026-04-13 02:26 | 23.40485 | 113.31020 | 54 ft | 17 kts | 13° |
| 2026-04-13 02:26 | 23.40600 | 113.31051 | 54 ft | 17 kts | 14° |
| 2026-04-13 02:26 | 23.40711 | 113.31081 | 55 ft | 16 kts | 15° |
| 2026-04-13 02:27 | 23.40818 | 113.31110 | 54 ft | 16 kts | 13° |
| 2026-04-13 02:27 | 23.40921 | 113.31149 | 55 ft | 16 kts | 43° |
| 2026-04-13 02:27 | 23.40931 | 113.31222 | 56 ft | 0 kts | 101° |
| 2026-04-13 02:28 | 23.40929 | 113.31233 | 55 ft | 4 kts | 102° |
| 2026-04-13 02:28 | 23.40919 | 113.31279 | 52 ft | 9 kts | 104° |
| 2026-04-13 02:28 | 23.40900 | 113.31358 | 55 ft | 12 kts | 105° |
| 2026-04-13 02:29 | 23.40836 | 113.31414 | 52 ft | 13 kts | 185° |
| 2026-04-13 02:29 | 23.40814 | 113.31409 | 54 ft | 0 kts | 193° |
| 2026-04-13 02:30 | 23.40813 | 113.31409 | 54 ft | 1 kts | 193° |
| 2026-04-13 02:30 | 23.40637 | 113.31362 | 50 ft | 60 kts | 193° |
| 2026-04-13 02:31 | 23.40010 | 113.31193 | 50 ft | 123 kts | 193° |
| 2026-04-13 02:31 | 23.39005 | 113.30924 | 54 ft | 174 kts | 193° |
| 2026-04-13 02:31 | 23.37734 | 113.30526 | 420 ft | 193 kts | 197° |
| 2026-04-13 02:31 | 23.36536 | 113.30101 | 1570 ft | 169 kts | 188° |
| 2026-04-13 02:32 | 23.35368 | 113.29879 | 2235 ft | 177 kts | 191° |
| 2026-04-13 02:32 | 23.34078 | 113.29565 | 2442 ft | 201 kts | 192° |
| 2026-04-13 02:32 | 23.32657 | 113.29196 | 2635 ft | 219 kts | 193° |
| 2026-04-13 02:32 | 23.31124 | 113.28789 | 2818 ft | 237 kts | 193° |
| 2026-04-13 02:33 | 23.29457 | 113.28413 | 3190 ft | 249 kts | 185° |
| 2026-04-13 02:33 | 23.27718 | 113.28355 | 3829 ft | 252 kts | 180° |
| 2026-04-13 02:33 | 23.25955 | 113.28366 | 4470 ft | 255 kts | 180° |
| 2026-04-13 02:33 | 23.24175 | 113.28385 | 5173 ft | 255 kts | 181° |
| 2026-04-13 02:34 | 23.22387 | 113.28387 | 5775 ft | 260 kts | 183° |
| 2026-04-13 02:34 | 23.20560 | 113.28378 | 6348 ft | 264 kts | 184° |
| 2026-04-13 02:34 | 23.18715 | 113.28344 | 6884 ft | 266 kts | 188° |
| 2026-04-13 02:34 | 23.16887 | 113.28002 | 7420 ft | 268 kts | 196° |
| 2026-04-13 02:35 | 23.15054 | 113.27529 | 7941 ft | 272 kts | 197° |
| 2026-04-13 02:35 | 23.13149 | 113.27359 | 8456 ft | 284 kts | 174° |
| 2026-04-13 02:35 | 23.11290 | 113.28188 | 8995 ft | 298 kts | 146° |
| 2026-04-13 02:35 | 23.10087 | 113.29652 | 9431 ft | 310 kts | 120° |
| 2026-04-13 02:36 | 23.09420 | 113.31899 | 9969 ft | 316 kts | 103° |
| 2026-04-13 02:36 | 23.08995 | 113.34268 | 10326 ft | 327 kts | 101° |
| 2026-04-13 02:36 | 23.08985 | 113.36807 | 10423 ft | 348 kts | 76° |
| 2026-04-13 02:36 | 23.09934 | 113.39261 | 10577 ft | 362 kts | 57° |
| 2026-04-13 02:37 | 23.11349 | 113.41599 | 10694 ft | 378 kts | 54° |
| 2026-04-13 02:37 | 23.12789 | 113.43938 | 10801 ft | 393 kts | 55° |
| 2026-04-13 02:37 | 23.14352 | 113.46434 | 10892 ft | 406 kts | 49° |
| 2026-04-13 02:37 | 23.16463 | 113.48477 | 11138 ft | 409 kts | 29° |
| 2026-04-13 02:38 | 23.19058 | 113.49688 | 11534 ft | 406 kts | 12° |
| 2026-04-13 02:38 | 23.21798 | 113.50469 | 11983 ft | 407 kts | 11° |
| 2026-04-13 02:38 | 23.24558 | 113.51235 | 12346 ft | 412 kts | 11° |
| 2026-04-13 02:38 | 23.27335 | 113.52040 | 12816 ft | 414 kts | 12° |
| 2026-04-13 02:39 | 23.30084 | 113.52858 | 13200 ft | 418 kts | 12° |
| 2026-04-13 02:39 | 23.32936 | 113.53568 | 13572 ft | 420 kts | 7° |
| 2026-04-13 02:39 | 23.35826 | 113.54119 | 13929 ft | 423 kts | 6° |
| 2026-04-13 02:39 | 23.38735 | 113.54652 | 14310 ft | 426 kts | 6° |
| 2026-04-13 02:40 | 23.41662 | 113.55221 | 14742 ft | 428 kts | 7° |
| 2026-04-13 02:40 | 23.44602 | 113.55720 | 15154 ft | 426 kts | 358° |
| 2026-04-13 02:40 | 23.47500 | 113.55329 | 15533 ft | 418 kts | 338° |
| 2026-04-13 02:40 | 23.50132 | 113.54044 | 15951 ft | 412 kts | 323° |
| 2026-04-13 02:41 | 23.52327 | 113.52081 | 16339 ft | 407 kts | 312° |
| 2026-04-13 02:41 | 23.54359 | 113.49922 | 16718 ft | 409 kts | 311° |
| 2026-04-13 02:41 | 23.56387 | 113.47728 | 17086 ft | 411 kts | 311° |
| 2026-04-13 02:41 | 23.58430 | 113.45532 | 17493 ft | 413 kts | 311° |
| 2026-04-13 02:42 | 23.60496 | 113.43336 | 17835 ft | 415 kts | 312° |
| 2026-04-13 02:42 | 23.62582 | 113.41139 | 18167 ft | 418 kts | 312° |
| 2026-04-13 02:42 | 23.64684 | 113.38935 | 18467 ft | 420 kts | 312° |
| 2026-04-13 02:42 | 23.66795 | 113.36722 | 18760 ft | 422 kts | 312° |
| 2026-04-13 02:43 | 23.68913 | 113.34502 | 19055 ft | 423 kts | 312° |
| 2026-04-13 02:43 | 23.71035 | 113.32272 | 19350 ft | 425 kts | 312° |
| 2026-04-13 02:43 | 23.73169 | 113.30028 | 19620 ft | 427 kts | 312° |
| 2026-04-13 02:43 | 23.75313 | 113.27772 | 19890 ft | 429 kts | 312° |
| 2026-04-13 02:44 | 23.77461 | 113.25510 | 20170 ft | 430 kts | 312° |
| 2026-04-13 02:44 | 23.79620 | 113.23236 | 20426 ft | 432 kts | 311° |
| 2026-04-13 02:44 | 23.81786 | 113.20954 | 20675 ft | 434 kts | 311° |
| 2026-04-13 02:44 | 23.83224 | 113.19437 | 20833 ft | 435 kts | 311° |
| 2026-04-13 02:45 | 23.85409 | 113.17134 | 21071 ft | 437 kts | 311° |
| 2026-04-13 02:45 | 23.88315 | 113.14067 | 21411 ft | 439 kts | 311° |
| 2026-04-13 02:45 | 23.90515 | 113.11745 | 21656 ft | 441 kts | 311° |
| 2026-04-13 02:45 | 23.92722 | 113.09414 | 21877 ft | 442 kts | 311° |
| 2026-04-13 02:46 | 23.94219 | 113.07832 | 22015 ft | 444 kts | 311° |
| 2026-04-13 02:46 | 23.97170 | 113.04713 | 22304 ft | 446 kts | 311° |
| 2026-04-13 02:46 | 23.99403 | 113.02351 | 22543 ft | 447 kts | 311° |
| 2026-04-13 02:47 | 24.03895 | 112.97595 | 22955 ft | 451 kts | 311° |
| 2026-04-13 02:47 | 24.06154 | 112.95202 | 23186 ft | 452 kts | 311° |
| 2026-04-13 02:47 | 24.07681 | 112.93583 | 23351 ft | 453 kts | 311° |
| 2026-04-13 02:47 | 24.10685 | 112.90399 | 23614 ft | 454 kts | 311° |
| 2026-04-13 02:48 | 24.12189 | 112.88803 | 23708 ft | 455 kts | 311° |
| 2026-04-13 02:48 | 24.14526 | 112.86444 | 23870 ft | 461 kts | 318° |
| 2026-04-13 02:48 | 24.17341 | 112.84694 | 24009 ft | 474 kts | 334° |
| 2026-04-13 02:48 | 24.20501 | 112.83585 | 24242 ft | 477 kts | 338° |
| 2026-04-13 02:49 | 24.23698 | 112.82585 | 24400 ft | 479 kts | 339° |
| 2026-04-13 02:49 | 24.26906 | 112.81592 | 24528 ft | 481 kts | 339° |
| 2026-04-13 02:49 | 24.30123 | 112.80569 | 24675 ft | 482 kts | 338° |
| 2026-04-13 02:49 | 24.33337 | 112.79519 | 24851 ft | 482 kts | 338° |
| 2026-04-13 02:50 | 24.36545 | 112.78453 | 25026 ft | 482 kts | 338° |
| 2026-04-13 02:50 | 24.39759 | 112.77379 | 25174 ft | 484 kts | 338° |
| 2026-04-13 02:50 | 24.42941 | 112.76208 | 25300 ft | 479 kts | 329° |
| 2026-04-13 02:50 | 24.45689 | 112.74251 | 25431 ft | 467 kts | 312° |
| 2026-04-13 02:51 | 24.47777 | 112.71585 | 25629 ft | 456 kts | 298° |
| 2026-04-13 02:51 | 24.49247 | 112.68541 | 25780 ft | 449 kts | 287° |
| 2026-04-13 02:51 | 24.50016 | 112.65252 | 25925 ft | 443 kts | 275° |
| 2026-04-13 02:51 | 24.50369 | 112.61893 | 26045 ft | 444 kts | 273° |
| 2026-04-13 02:52 | 24.50667 | 112.58516 | 26104 ft | 446 kts | 272° |
| 2026-04-13 02:52 | 24.50951 | 112.55129 | 26248 ft | 446 kts | 272° |
| 2026-04-13 02:52 | 24.51243 | 112.51731 | 26401 ft | 447 kts | 273° |
| 2026-04-13 02:52 | 24.51546 | 112.48335 | 26532 ft | 448 kts | 273° |
| 2026-04-13 02:53 | 24.51861 | 112.44928 | 26677 ft | 448 kts | 273° |
| 2026-04-13 02:53 | 24.52183 | 112.41531 | 26876 ft | 447 kts | 273° |
| 2026-04-13 02:53 | 24.52508 | 112.38136 | 27077 ft | 446 kts | 273° |
| 2026-04-13 02:53 | 24.52834 | 112.34753 | 27272 ft | 446 kts | 273° |
| 2026-04-13 02:54 | 24.53158 | 112.31372 | 27473 ft | 445 kts | 273° |
| 2026-04-13 02:54 | 24.53481 | 112.27999 | 27655 ft | 445 kts | 273° |
| 2026-04-13 02:54 | 24.53804 | 112.24624 | 27860 ft | 444 kts | 273° |
| 2026-04-13 02:54 | 24.54124 | 112.21256 | 28103 ft | 443 kts | 274° |
| 2026-04-13 02:55 | 24.54444 | 112.17892 | 28304 ft | 442 kts | 274° |
| 2026-04-13 02:55 | 24.54761 | 112.14539 | 28505 ft | 442 kts | 273° |
| 2026-04-13 02:55 | 24.55079 | 112.11187 | 28721 ft | 441 kts | 273° |
| 2026-04-13 02:55 | 24.55394 | 112.07836 | 28920 ft | 440 kts | 273° |
| 2026-04-13 02:56 | 24.55706 | 112.04497 | 29127 ft | 440 kts | 274° |
| 2026-04-13 02:56 | 24.56019 | 112.01153 | 29350 ft | 439 kts | 273° |
| 2026-04-13 02:56 | 24.56330 | 111.97823 | 29622 ft | 438 kts | 273° |
| 2026-04-13 02:56 | 24.56639 | 111.94496 | 29820 ft | 438 kts | 273° |
| 2026-04-13 02:57 | 24.56947 | 111.91176 | 30043 ft | 437 kts | 273° |
| 2026-04-13 02:57 | 24.57255 | 111.87848 | 30262 ft | 436 kts | 273° |
| 2026-04-13 02:57 | 24.57561 | 111.84545 | 30489 ft | 435 kts | 273° |
| 2026-04-13 02:57 | 24.57867 | 111.81237 | 30711 ft | 434 kts | 273° |
| 2026-04-13 02:58 | 24.58171 | 111.77942 | 30926 ft | 433 kts | 273° |
| 2026-04-13 02:58 | 24.58473 | 111.74650 | 31092 ft | 434 kts | 272° |
| 2026-04-13 02:58 | 24.58776 | 111.71350 | 31246 ft | 434 kts | 272° |
| 2026-04-13 02:58 | 24.59077 | 111.68051 | 31436 ft | 434 kts | 273° |
| 2026-04-13 02:59 | 24.59378 | 111.64754 | 31657 ft | 433 kts | 273° |
| 2026-04-13 02:59 | 24.59678 | 111.61468 | 31891 ft | 432 kts | 272° |
| 2026-04-13 02:59 | 24.59975 | 111.58195 | 32012 ft | 431 kts | 272° |
| 2026-04-13 02:59 | 24.60272 | 111.54908 | 32003 ft | 432 kts | 272° |
| 2026-04-13 03:00 | 24.60865 | 111.48343 | 32018 ft | 432 kts | 272° |
| 2026-04-13 03:00 | 24.61455 | 111.41778 | 32017 ft | 432 kts | 272° |
| 2026-04-13 03:01 | 24.62045 | 111.35198 | 32013 ft | 432 kts | 273° |
| 2026-04-13 03:01 | 24.62629 | 111.28616 | 32002 ft | 432 kts | 272° |
| 2026-04-13 03:02 | 24.63202 | 111.22038 | 32011 ft | 431 kts | 272° |
| 2026-04-13 03:02 | 24.63767 | 111.15521 | 32005 ft | 431 kts | 272° |
| 2026-04-13 03:03 | 24.64330 | 111.08963 | 32015 ft | 431 kts | 272° |
| 2026-04-13 03:03 | 24.64897 | 111.02403 | 31992 ft | 431 kts | 272° |
| 2026-04-13 03:04 | 24.65459 | 110.95852 | 31998 ft | 431 kts | 272° |
| 2026-04-13 03:04 | 24.66020 | 110.89277 | 32007 ft | 432 kts | 272° |
| 2026-04-13 03:05 | 24.66612 | 110.82691 | 32182 ft | 435 kts | 277° |
| 2026-04-13 03:05 | 24.67455 | 110.79488 | 32401 ft | 440 kts | 288° |
| 2026-04-13 03:05 | 24.68820 | 110.76475 | 32664 ft | 443 kts | 296° |
| 2026-04-13 03:06 | 24.70639 | 110.73707 | 32867 ft | 451 kts | 307° |
| 2026-04-13 03:06 | 24.72880 | 110.71262 | 33046 ft | 455 kts | 310° |
| 2026-04-13 03:06 | 24.75194 | 110.68877 | 33218 ft | 456 kts | 311° |
| 2026-04-13 03:06 | 24.77522 | 110.66504 | 33428 ft | 456 kts | 310° |
| 2026-04-13 03:07 | 24.79837 | 110.64128 | 33629 ft | 455 kts | 310° |
| 2026-04-13 03:07 | 24.82143 | 110.61733 | 33813 ft | 455 kts | 310° |
| 2026-04-13 03:07 | 24.84436 | 110.59329 | 33952 ft | 452 kts | 310° |
| 2026-04-13 03:07 | 24.86705 | 110.56938 | 33982 ft | 452 kts | 310° |
| 2026-04-13 03:08 | 24.91259 | 110.52116 | 34005 ft | 456 kts | 309° |
| 2026-04-13 03:08 | 24.95853 | 110.47253 | 34011 ft | 459 kts | 309° |
| 2026-04-13 03:09 | 25.00466 | 110.42371 | 34002 ft | 460 kts | 309° |
| 2026-04-13 03:09 | 25.05093 | 110.37481 | 34004 ft | 460 kts | 309° |
| 2026-04-13 03:10 | 25.09710 | 110.32611 | 34006 ft | 458 kts | 309° |
| 2026-04-13 03:10 | 25.14303 | 110.27759 | 34004 ft | 456 kts | 309° |
| 2026-04-13 03:11 | 25.18879 | 110.22917 | 34013 ft | 454 kts | 309° |
| 2026-04-13 03:11 | 25.23396 | 110.18153 | 34010 ft | 452 kts | 309° |
| 2026-04-13 03:12 | 25.27954 | 110.13390 | 34012 ft | 450 kts | 309° |
| 2026-04-13 03:12 | 25.32495 | 110.08641 | 34014 ft | 448 kts | 309° |
| 2026-04-13 03:13 | 25.37019 | 110.03898 | 34015 ft | 448 kts | 309° |
| 2026-04-13 03:13 | 25.41535 | 109.99155 | 34015 ft | 447 kts | 309° |
| 2026-04-13 03:14 | 25.46036 | 109.94419 | 34014 ft | 447 kts | 309° |
| 2026-04-13 03:14 | 25.50554 | 109.89670 | 33989 ft | 448 kts | 310° |
| 2026-04-13 03:15 | 25.55066 | 109.84920 | 33995 ft | 448 kts | 309° |
| 2026-04-13 03:15 | 25.59586 | 109.80152 | 34008 ft | 449 kts | 309° |
| 2026-04-13 03:16 | 25.64109 | 109.75378 | 34000 ft | 449 kts | 309° |
| 2026-04-13 03:16 | 25.68631 | 109.70599 | 34008 ft | 449 kts | 309° |
| 2026-04-13 03:17 | 25.73150 | 109.65819 | 33991 ft | 449 kts | 309° |
| 2026-04-13 03:17 | 25.77034 | 109.60578 | 34003 ft | 433 kts | 294° |
| 2026-04-13 03:18 | 25.79464 | 109.54637 | 34005 ft | 421 kts | 281° |
| 2026-04-13 03:18 | 25.81079 | 109.48408 | 34012 ft | 420 kts | 280° |
| 2026-04-13 03:19 | 25.82677 | 109.42170 | 34003 ft | 420 kts | 281° |
| 2026-04-13 03:19 | 25.84305 | 109.35926 | 34004 ft | 421 kts | 281° |
| 2026-04-13 03:20 | 25.85944 | 109.29678 | 34009 ft | 421 kts | 281° |
| 2026-04-13 03:20 | 25.87580 | 109.23436 | 34007 ft | 421 kts | 281° |
| 2026-04-13 03:21 | 25.89216 | 109.17186 | 34006 ft | 421 kts | 281° |
| 2026-04-13 03:21 | 25.90846 | 109.10943 | 34009 ft | 421 kts | 280° |
| 2026-04-13 03:22 | 25.92473 | 109.04700 | 34012 ft | 420 kts | 281° |
| 2026-04-13 03:22 | 25.94111 | 108.98473 | 34023 ft | 420 kts | 281° |
| 2026-04-13 03:23 | 25.95757 | 108.92249 | 34025 ft | 420 kts | 281° |
| 2026-04-13 03:23 | 25.97388 | 108.86063 | 34030 ft | 420 kts | 281° |
| 2026-04-13 03:24 | 25.99034 | 108.79808 | 34034 ft | 419 kts | 281° |
| 2026-04-13 03:24 | 26.00669 | 108.73578 | 34040 ft | 419 kts | 281° |
| 2026-04-13 03:25 | 26.02308 | 108.67402 | 34039 ft | 419 kts | 281° |
| 2026-04-13 03:25 | 26.03971 | 108.61199 | 34032 ft | 418 kts | 281° |
| 2026-04-13 03:26 | 26.05624 | 108.55017 | 34040 ft | 417 kts | 281° |
| 2026-04-13 03:26 | 26.07268 | 108.48849 | 34045 ft | 415 kts | 281° |
| 2026-04-13 03:27 | 26.08900 | 108.42708 | 34049 ft | 414 kts | 281° |
| 2026-04-13 03:27 | 26.10936 | 108.36685 | 34056 ft | 420 kts | 289° |
| 2026-04-13 03:28 | 26.13494 | 108.30850 | 34050 ft | 419 kts | 289° |
| 2026-04-13 03:28 | 26.16037 | 108.25025 | 34048 ft | 418 kts | 288° |
| 2026-04-13 03:29 | 26.18552 | 108.19213 | 34060 ft | 415 kts | 289° |
| 2026-04-13 03:29 | 26.20634 | 108.14386 | 34058 ft | 415 kts | 289° |
| 2026-04-13 03:30 | 26.23551 | 108.07608 | 34055 ft | 415 kts | 288° |
| 2026-04-13 03:30 | 26.26043 | 108.01812 | 34064 ft | 414 kts | 288° |
| 2026-04-13 03:31 | 26.28108 | 107.97001 | 34054 ft | 413 kts | 288° |
| 2026-04-13 03:31 | 26.30586 | 107.91222 | 34047 ft | 413 kts | 288° |
| 2026-04-13 03:32 | 26.33463 | 107.84493 | 34053 ft | 415 kts | 288° |
| 2026-04-13 03:32 | 26.35947 | 107.78683 | 34051 ft | 416 kts | 288° |
| 2026-04-13 03:33 | 26.38437 | 107.72856 | 34054 ft | 416 kts | 288° |
| 2026-04-13 03:33 | 26.40520 | 107.67971 | 34050 ft | 416 kts | 288° |
| 2026-04-13 03:34 | 26.43006 | 107.62135 | 34067 ft | 417 kts | 288° |
| 2026-04-13 03:34 | 26.45494 | 107.56285 | 34057 ft | 417 kts | 288° |
| 2026-04-13 03:35 | 26.47981 | 107.50435 | 34063 ft | 417 kts | 288° |
| 2026-04-13 03:35 | 26.50490 | 107.44585 | 34067 ft | 418 kts | 288° |
| 2026-04-13 03:36 | 26.53004 | 107.38728 | 34065 ft | 418 kts | 288° |
| 2026-04-13 03:36 | 26.55505 | 107.32868 | 34067 ft | 418 kts | 288° |
| 2026-04-13 03:37 | 26.57970 | 107.27002 | 34073 ft | 416 kts | 288° |
| 2026-04-13 03:37 | 26.60429 | 107.21140 | 34071 ft | 416 kts | 288° |
| 2026-04-13 03:38 | 26.62886 | 107.15286 | 34080 ft | 416 kts | 288° |
| 2026-04-13 03:38 | 26.65358 | 107.09439 | 34082 ft | 416 kts | 288° |
| 2026-04-13 03:39 | 26.67842 | 107.03611 | 34089 ft | 415 kts | 288° |
| 2026-04-13 03:39 | 26.70324 | 106.97778 | 34086 ft | 415 kts | 288° |
| 2026-04-13 03:40 | 26.72800 | 106.91943 | 34099 ft | 414 kts | 288° |
| 2026-04-13 03:40 | 26.75267 | 106.86118 | 34105 ft | 415 kts | 287° |
| 2026-04-13 03:41 | 26.77853 | 106.80330 | 34089 ft | 422 kts | 294° |
| 2026-04-13 03:41 | 26.81556 | 106.75106 | 34097 ft | 439 kts | 307° |
| 2026-04-13 03:42 | 26.86172 | 106.70561 | 34101 ft | 442 kts | 309° |
| 2026-04-13 03:43 | 26.93153 | 106.63824 | 34101 ft | 441 kts | 309° |
| 2026-04-13 03:43 | 26.97732 | 106.59343 | 34100 ft | 439 kts | 308° |
| 2026-04-13 03:44 | 27.02319 | 106.54833 | 34097 ft | 438 kts | 308° |
| 2026-04-13 03:44 | 27.06900 | 106.50322 | 34096 ft | 437 kts | 308° |
| 2026-04-13 03:45 | 27.11460 | 106.45829 | 34100 ft | 436 kts | 308° |
| 2026-04-13 03:45 | 27.16004 | 106.41347 | 34093 ft | 434 kts | 308° |
| 2026-04-13 03:46 | 27.20528 | 106.36882 | 34108 ft | 433 kts | 308° |
| 2026-04-13 03:46 | 27.25087 | 106.32435 | 34107 ft | 434 kts | 308° |
| 2026-04-13 03:47 | 27.29666 | 106.27994 | 34099 ft | 434 kts | 308° |
| 2026-04-13 03:47 | 27.34231 | 106.23559 | 34100 ft | 433 kts | 308° |
| 2026-04-13 03:48 | 27.38780 | 106.19125 | 34103 ft | 432 kts | 308° |
| 2026-04-13 03:48 | 27.43314 | 106.14697 | 34101 ft | 431 kts | 308° |
| 2026-04-13 03:49 | 27.47836 | 106.10279 | 34101 ft | 430 kts | 307° |
| 2026-04-13 03:49 | 27.52325 | 106.05888 | 34110 ft | 429 kts | 308° |
| 2026-04-13 03:50 | 27.56835 | 106.01471 | 34098 ft | 429 kts | 308° |
| 2026-04-13 03:50 | 27.61332 | 105.97061 | 34091 ft | 428 kts | 307° |
| 2026-04-13 03:51 | 27.65807 | 105.92674 | 34035 ft | 425 kts | 308° |
| 2026-04-13 03:51 | 27.70187 | 105.88247 | 34098 ft | 415 kts | 301° |
| 2026-04-13 03:52 | 27.73428 | 105.83065 | 34077 ft | 400 kts | 289° |
| 2026-04-13 03:52 | 27.74617 | 105.80258 | 34097 ft | 393 kts | 282° |
| 2026-04-13 03:52 | 27.76262 | 105.74404 | 34097 ft | 393 kts | 280° |
| 2026-04-13 03:53 | 27.77904 | 105.68496 | 34074 ft | 394 kts | 281° |
| 2026-04-13 03:53 | 27.79558 | 105.62624 | 34072 ft | 391 kts | 281° |
| 2026-04-13 03:54 | 27.81586 | 105.56876 | 34104 ft | 397 kts | 285° |
| 2026-04-13 03:54 | 27.83840 | 105.51174 | 34098 ft | 397 kts | 285° |
| 2026-04-13 03:55 | 27.86073 | 105.45446 | 34100 ft | 399 kts | 285° |
| 2026-04-13 03:55 | 27.88297 | 105.39685 | 34102 ft | 400 kts | 285° |
| 2026-04-13 03:56 | 27.90741 | 105.34003 | 34099 ft | 404 kts | 288° |
| 2026-04-13 03:56 | 27.93301 | 105.28341 | 34095 ft | 403 kts | 288° |
| 2026-04-13 03:57 | 27.95824 | 105.22678 | 34101 ft | 404 kts | 289° |
| 2026-04-13 03:57 | 27.97344 | 105.19959 | 34100 ft | 416 kts | 298° |
| 2026-04-13 03:57 | 27.99241 | 105.17445 | 34106 ft | 424 kts | 303° |
| 2026-04-13 03:58 | 28.03861 | 105.13072 | 34109 ft | 445 kts | 316° |
| 2026-04-13 03:58 | 28.09145 | 105.09420 | 34103 ft | 442 kts | 317° |
| 2026-04-13 03:59 | 28.14391 | 105.05849 | 34118 ft | 438 kts | 317° |
| 2026-04-13 03:59 | 28.19597 | 105.02234 | 34112 ft | 439 kts | 317° |
| 2026-04-13 04:00 | 28.24799 | 104.98590 | 34105 ft | 440 kts | 317° |
| 2026-04-13 04:00 | 28.29976 | 104.94961 | 34112 ft | 441 kts | 317° |
| 2026-04-13 04:01 | 28.35193 | 104.91302 | 34105 ft | 441 kts | 317° |
| 2026-04-13 04:01 | 28.40427 | 104.87627 | 34111 ft | 443 kts | 317° |
| 2026-04-13 04:02 | 28.45686 | 104.83944 | 34103 ft | 444 kts | 317° |
| 2026-04-13 04:02 | 28.50954 | 104.80255 | 34102 ft | 445 kts | 317° |
| 2026-04-13 04:03 | 28.56239 | 104.76549 | 34104 ft | 446 kts | 317° |
| 2026-04-13 04:03 | 28.61534 | 104.72830 | 34097 ft | 447 kts | 318° |
| 2026-04-13 04:04 | 28.66831 | 104.69107 | 34093 ft | 447 kts | 318° |
| 2026-04-13 04:04 | 28.72117 | 104.65387 | 34084 ft | 446 kts | 318° |
| 2026-04-13 04:05 | 28.77393 | 104.61668 | 34095 ft | 445 kts | 318° |
| 2026-04-13 04:05 | 28.82661 | 104.57951 | 34094 ft | 445 kts | 318° |
| 2026-04-13 04:06 | 28.87917 | 104.54233 | 34100 ft | 444 kts | 318° |
| 2026-04-13 04:06 | 28.93118 | 104.50535 | 34099 ft | 443 kts | 318° |
| 2026-04-13 04:07 | 28.98349 | 104.46810 | 34100 ft | 442 kts | 318° |
| 2026-04-13 04:07 | 29.03558 | 104.43098 | 34107 ft | 441 kts | 318° |
| 2026-04-13 04:08 | 29.08768 | 104.39382 | 34100 ft | 441 kts | 318° |
| 2026-04-13 04:08 | 29.13968 | 104.35669 | 34102 ft | 440 kts | 318° |
| 2026-04-13 04:09 | 29.19161 | 104.31956 | 34098 ft | 440 kts | 318° |
| 2026-04-13 04:09 | 29.23487 | 104.28905 | 34089 ft | 444 kts | 322° |
| 2026-04-13 04:10 | 29.27471 | 104.27284 | 34110 ft | 466 kts | 338° |
| 2026-04-13 04:10 | 29.30731 | 104.26822 | 34092 ft | 481 kts | 349° |
| 2026-04-13 04:10 | 29.34123 | 104.27121 | 34119 ft | 493 kts | 358° |
| 2026-04-13 04:10 | 29.37528 | 104.27699 | 34101 ft | 496 kts | 359° |
| 2026-04-13 04:11 | 29.44331 | 104.28998 | 34102 ft | 495 kts | 360° |
| 2026-04-13 04:11 | 29.51134 | 104.30245 | 34108 ft | 494 kts | 359° |
| 2026-04-13 04:12 | 29.57934 | 104.31418 | 34104 ft | 494 kts | 359° |
| 2026-04-13 04:12 | 29.64741 | 104.32572 | 34102 ft | 494 kts | 359° |
| 2026-04-13 04:13 | 29.71542 | 104.33728 | 34105 ft | 494 kts | 359° |
| 2026-04-13 04:13 | 29.77195 | 104.34693 | 34105 ft | 494 kts | 359° |
| 2026-04-13 04:14 | 29.85140 | 104.36053 | 34092 ft | 494 kts | 359° |
| 2026-04-13 04:14 | 29.90797 | 104.37023 | 34109 ft | 493 kts | 359° |
| 2026-04-13 04:15 | 29.97588 | 104.38189 | 34095 ft | 493 kts | 359° |
| 2026-04-13 04:15 | 30.04374 | 104.39356 | 34105 ft | 493 kts | 359° |
| 2026-04-13 04:16 | 30.11158 | 104.40525 | 34101 ft | 493 kts | 359° |
| 2026-04-13 04:16 | 30.17938 | 104.41696 | 34096 ft | 493 kts | 360° |
| 2026-04-13 04:17 | 30.24721 | 104.42879 | 34098 ft | 492 kts | 360° |
| 2026-04-13 04:17 | 30.31489 | 104.44065 | 34099 ft | 491 kts | 0° |
| 2026-04-13 04:18 | 30.38251 | 104.45250 | 34103 ft | 491 kts | 0° |
| 2026-04-13 04:18 | 30.44958 | 104.46428 | 34097 ft | 491 kts | 0° |
| 2026-04-13 04:19 | 30.51747 | 104.47622 | 34100 ft | 490 kts | 0° |
| 2026-04-13 04:19 | 30.58478 | 104.48587 | 34085 ft | 480 kts | 352° |
| 2026-04-13 04:20 | 30.61737 | 104.48388 | 34101 ft | 469 kts | 344° |
| 2026-04-13 04:20 | 30.64912 | 104.47699 | 34090 ft | 459 kts | 335° |
| 2026-04-13 04:20 | 30.70909 | 104.45353 | 34098 ft | 454 kts | 332° |
| 2026-04-13 04:21 | 30.76897 | 104.42970 | 34101 ft | 455 kts | 333° |
| 2026-04-13 04:21 | 30.82917 | 104.40646 | 34097 ft | 456 kts | 334° |
| 2026-04-13 04:22 | 30.89127 | 104.38859 | 34091 ft | 470 kts | 347° |
| 2026-04-13 04:22 | 30.95728 | 104.38635 | 34104 ft | 476 kts | 352° |
| 2026-04-13 04:23 | 31.02357 | 104.38565 | 34100 ft | 476 kts | 352° |
| 2026-04-13 04:23 | 31.08979 | 104.38425 | 34097 ft | 476 kts | 351° |
| 2026-04-13 04:24 | 31.15596 | 104.38248 | 34097 ft | 476 kts | 352° |
| 2026-04-13 04:24 | 31.22182 | 104.38071 | 34095 ft | 476 kts | 352° |
| 2026-04-13 04:25 | 31.28791 | 104.37839 | 34096 ft | 474 kts | 350° |
| 2026-04-13 04:25 | 31.35380 | 104.37437 | 34099 ft | 473 kts | 350° |
| 2026-04-13 04:26 | 31.41958 | 104.37022 | 34095 ft | 473 kts | 350° |
| 2026-04-13 04:26 | 31.48535 | 104.36631 | 34100 ft | 473 kts | 351° |
| 2026-04-13 04:27 | 31.55117 | 104.36252 | 34117 ft | 474 kts | 351° |
| 2026-04-13 04:27 | 31.61708 | 104.35871 | 34114 ft | 474 kts | 351° |
| 2026-04-13 04:28 | 31.68266 | 104.35492 | 34122 ft | 475 kts | 351° |
| 2026-04-13 04:28 | 31.74922 | 104.35107 | 34081 ft | 476 kts | 351° |
| 2026-04-13 04:29 | 31.81528 | 104.34742 | 34090 ft | 474 kts | 351° |
| 2026-04-13 04:29 | 31.88071 | 104.34410 | 34134 ft | 474 kts | 351° |
| 2026-04-13 04:30 | 31.94707 | 104.34076 | 34171 ft | 474 kts | 351° |
| 2026-04-13 04:30 | 32.01276 | 104.33738 | 34143 ft | 477 kts | 352° |
| 2026-04-13 04:31 | 32.07962 | 104.33399 | 34069 ft | 476 kts | 352° |
| 2026-04-13 04:31 | 32.14556 | 104.33062 | 34153 ft | 474 kts | 351° |
| 2026-04-13 04:32 | 32.21117 | 104.32720 | 34179 ft | 476 kts | 351° |
| 2026-04-13 04:32 | 32.27770 | 104.32376 | 34148 ft | 480 kts | 352° |
| 2026-04-13 04:33 | 32.34463 | 104.32034 | 34142 ft | 483 kts | 352° |
| 2026-04-13 04:33 | 32.41178 | 104.31688 | 34162 ft | 484 kts | 352° |
| 2026-04-13 04:34 | 32.47926 | 104.31345 | 34160 ft | 485 kts | 352° |
| 2026-04-13 04:34 | 32.54664 | 104.31012 | 34155 ft | 483 kts | 352° |
| 2026-04-13 04:35 | 32.61390 | 104.30674 | 34177 ft | 484 kts | 352° |
| 2026-04-13 04:35 | 32.68115 | 104.30350 | 34171 ft | 484 kts | 352° |
| 2026-04-13 04:36 | 32.74824 | 104.30033 | 34179 ft | 481 kts | 352° |
| 2026-04-13 04:36 | 32.81504 | 104.29715 | 34167 ft | 479 kts | 352° |
| 2026-04-13 04:37 | 32.88152 | 104.29394 | 34150 ft | 476 kts | 353° |
| 2026-04-13 04:37 | 32.94761 | 104.29074 | 34174 ft | 475 kts | 353° |
| 2026-04-13 04:38 | 33.01367 | 104.28754 | 34166 ft | 476 kts | 353° |
| 2026-04-13 04:38 | 33.07989 | 104.28435 | 34164 ft | 476 kts | 353° |
| 2026-04-13 04:39 | 33.14619 | 104.28116 | 34167 ft | 477 kts | 353° |
| 2026-04-13 04:39 | 33.21224 | 104.27797 | 34175 ft | 480 kts | 353° |
| 2026-04-13 04:40 | 33.27919 | 104.27474 | 34189 ft | 483 kts | 353° |
| 2026-04-13 04:40 | 33.31238 | 104.27056 | 34282 ft | 476 kts | 340° |
| 2026-04-13 04:40 | 33.34255 | 104.25581 | 34543 ft | 462 kts | 323° |
| 2026-04-13 04:41 | 33.36786 | 104.23316 | 34848 ft | 450 kts | 310° |
| 2026-04-13 04:41 | 33.38773 | 104.20492 | 35079 ft | 439 kts | 296° |
| 2026-04-13 04:41 | 33.40266 | 104.17342 | 35292 ft | 434 kts | 293° |
| 2026-04-13 04:41 | 33.41671 | 104.14154 | 35531 ft | 432 kts | 292° |
| 2026-04-13 04:42 | 33.43050 | 104.10964 | 35777 ft | 431 kts | 292° |
| 2026-04-13 04:42 | 33.44428 | 104.07781 | 36053 ft | 429 kts | 292° |
| 2026-04-13 04:42 | 33.45808 | 104.04620 | 36193 ft | 428 kts | 292° |
| 2026-04-13 04:43 | 33.50008 | 103.95121 | 36187 ft | 433 kts | 293° |
| 2026-04-13 04:43 | 33.52828 | 103.88784 | 36207 ft | 435 kts | 293° |
| 2026-04-13 04:44 | 33.55674 | 103.82386 | 36232 ft | 435 kts | 293° |
| 2026-04-13 04:44 | 33.58512 | 103.75985 | 36193 ft | 433 kts | 293° |
| 2026-04-13 04:45 | 33.61308 | 103.69684 | 36212 ft | 424 kts | 293° |
| 2026-04-13 04:45 | 33.64076 | 103.63423 | 36201 ft | 425 kts | 293° |
| 2026-04-13 04:46 | 33.66843 | 103.57153 | 36204 ft | 424 kts | 293° |
| 2026-04-13 04:46 | 33.69604 | 103.50878 | 36204 ft | 426 kts | 293° |
| 2026-04-13 04:47 | 33.72373 | 103.44578 | 36199 ft | 427 kts | 293° |
| 2026-04-13 04:47 | 33.75148 | 103.38258 | 36196 ft | 428 kts | 293° |
| 2026-04-13 04:48 | 33.77925 | 103.31920 | 36198 ft | 429 kts | 293° |
| 2026-04-13 04:48 | 33.80700 | 103.25574 | 36197 ft | 429 kts | 293° |
| 2026-04-13 04:49 | 33.83470 | 103.19229 | 36189 ft | 429 kts | 293° |
| 2026-04-13 04:49 | 33.86238 | 103.12879 | 36198 ft | 428 kts | 293° |
| 2026-04-13 04:50 | 33.89003 | 103.06521 | 36191 ft | 428 kts | 292° |
| 2026-04-13 04:50 | 33.91764 | 103.00161 | 36186 ft | 429 kts | 292° |
| 2026-04-13 04:51 | 33.94525 | 102.93788 | 36197 ft | 430 kts | 292° |
| 2026-04-13 04:51 | 33.97293 | 102.87387 | 36199 ft | 432 kts | 292° |
| 2026-04-13 04:52 | 34.00070 | 102.80957 | 36190 ft | 433 kts | 292° |
| 2026-04-13 04:52 | 34.02852 | 102.74502 | 36193 ft | 434 kts | 292° |
| 2026-04-13 04:53 | 34.05640 | 102.68022 | 36189 ft | 435 kts | 291° |
| 2026-04-13 04:53 | 34.08416 | 102.61562 | 36198 ft | 433 kts | 291° |
| 2026-04-13 04:54 | 34.11183 | 102.55104 | 36200 ft | 434 kts | 290° |
| 2026-04-13 04:54 | 34.13944 | 102.48645 | 36184 ft | 436 kts | 291° |
| 2026-04-13 04:55 | 34.16723 | 102.42141 | 36185 ft | 436 kts | 291° |
| 2026-04-13 04:55 | 34.19497 | 102.35642 | 36187 ft | 435 kts | 291° |
| 2026-04-13 04:56 | 34.22338 | 102.29190 | 36189 ft | 435 kts | 292° |
| 2026-04-13 04:56 | 34.25200 | 102.22765 | 36186 ft | 434 kts | 292° |
| 2026-04-13 04:57 | 34.28057 | 102.16327 | 36181 ft | 434 kts | 292° |
| 2026-04-13 04:57 | 34.30899 | 102.09890 | 36175 ft | 434 kts | 292° |
| 2026-04-13 04:58 | 34.33275 | 102.04497 | 36161 ft | 433 kts | 292° |
| 2026-04-13 04:58 | 34.36551 | 101.97043 | 36176 ft | 430 kts | 292° |
| 2026-04-13 04:59 | 34.38887 | 101.91718 | 36189 ft | 431 kts | 291° |
| 2026-04-13 04:59 | 34.41704 | 101.85285 | 36166 ft | 433 kts | 292° |
| 2026-04-13 05:00 | 34.44521 | 101.78839 | 36161 ft | 433 kts | 292° |
| 2026-04-13 05:00 | 34.47334 | 101.72393 | 36174 ft | 433 kts | 292° |
| 2026-04-13 05:01 | 34.50147 | 101.65932 | 36129 ft | 434 kts | 291° |
| 2026-04-13 05:01 | 34.52956 | 101.59468 | 36166 ft | 434 kts | 292° |
| 2026-04-13 05:02 | 34.55753 | 101.53022 | 36157 ft | 434 kts | 292° |
| 2026-04-13 05:02 | 34.58557 | 101.46548 | 36146 ft | 433 kts | 292° |
| 2026-04-13 05:03 | 34.61355 | 101.40075 | 36152 ft | 433 kts | 292° |
| 2026-04-13 05:03 | 34.64145 | 101.33606 | 36144 ft | 432 kts | 292° |
| 2026-04-13 05:04 | 34.66927 | 101.27146 | 36152 ft | 431 kts | 292° |
| 2026-04-13 05:04 | 34.69701 | 101.20692 | 36157 ft | 430 kts | 292° |
| 2026-04-13 05:05 | 34.72464 | 101.14250 | 36160 ft | 429 kts | 292° |
| 2026-04-13 05:05 | 34.75216 | 101.07825 | 36163 ft | 427 kts | 292° |
| 2026-04-13 05:06 | 34.77953 | 101.01418 | 36156 ft | 427 kts | 292° |
| 2026-04-13 05:06 | 34.80669 | 100.95048 | 36142 ft | 426 kts | 292° |
| 2026-04-13 05:07 | 34.83392 | 100.88653 | 36161 ft | 426 kts | 292° |
| 2026-04-13 05:07 | 34.86115 | 100.82242 | 36159 ft | 426 kts | 291° |
| 2026-04-13 05:08 | 34.88838 | 100.75821 | 36153 ft | 427 kts | 291° |
| 2026-04-13 05:08 | 34.91570 | 100.69369 | 36147 ft | 428 kts | 292° |
| 2026-04-13 05:09 | 34.94300 | 100.62916 | 36137 ft | 428 kts | 291° |
| 2026-04-13 05:09 | 34.97028 | 100.56442 | 36125 ft | 429 kts | 291° |
| 2026-04-13 05:10 | 34.99751 | 100.49969 | 36139 ft | 430 kts | 291° |
| 2026-04-13 05:10 | 35.02479 | 100.43473 | 36142 ft | 431 kts | 291° |
| 2026-04-13 05:11 | 35.05210 | 100.36957 | 36132 ft | 432 kts | 291° |
| 2026-04-13 05:11 | 35.07946 | 100.30416 | 36135 ft | 433 kts | 291° |
| 2026-04-13 05:12 | 35.10682 | 100.23865 | 36128 ft | 433 kts | 291° |
| 2026-04-13 05:12 | 35.13408 | 100.17329 | 36140 ft | 431 kts | 291° |
| 2026-04-13 05:13 | 35.16125 | 100.10798 | 36135 ft | 430 kts | 291° |
| 2026-04-13 05:13 | 35.18833 | 100.04274 | 36128 ft | 430 kts | 291° |
| 2026-04-13 05:14 | 35.21517 | 99.97796 | 36135 ft | 429 kts | 291° |
| 2026-04-13 05:14 | 35.24208 | 99.91290 | 36135 ft | 428 kts | 291° |
| 2026-04-13 05:15 | 35.26888 | 99.84797 | 36146 ft | 427 kts | 291° |
| 2026-04-13 05:15 | 35.29558 | 99.78317 | 36164 ft | 426 kts | 291° |
| 2026-04-13 05:16 | 35.32232 | 99.71811 | 36188 ft | 424 kts | 291° |
| 2026-04-13 05:16 | 35.34884 | 99.65347 | 36165 ft | 424 kts | 291° |
| 2026-04-13 05:17 | 35.37523 | 99.58901 | 36193 ft | 424 kts | 291° |
| 2026-04-13 05:17 | 35.40149 | 99.52480 | 36183 ft | 423 kts | 290° |
| 2026-04-13 05:18 | 35.42781 | 99.46025 | 36203 ft | 424 kts | 291° |
| 2026-04-13 05:18 | 35.45412 | 99.39561 | 36211 ft | 424 kts | 291° |
| 2026-04-13 05:19 | 35.48049 | 99.33075 | 36230 ft | 424 kts | 291° |
| 2026-04-13 05:19 | 35.50677 | 99.26595 | 36228 ft | 424 kts | 291° |
| 2026-04-13 05:20 | 35.53300 | 99.20112 | 36243 ft | 423 kts | 291° |
| 2026-04-13 05:20 | 35.55918 | 99.13631 | 36244 ft | 423 kts | 291° |
| 2026-04-13 05:21 | 35.58530 | 99.07151 | 36251 ft | 423 kts | 291° |
| 2026-04-13 05:21 | 35.61143 | 99.00655 | 36246 ft | 424 kts | 291° |
| 2026-04-13 05:22 | 35.63732 | 98.94209 | 36257 ft | 423 kts | 291° |
| 2026-04-13 05:22 | 35.66347 | 98.87684 | 36269 ft | 423 kts | 291° |
| 2026-04-13 05:23 | 35.68941 | 98.81200 | 36253 ft | 422 kts | 291° |
| 2026-04-13 05:23 | 35.71520 | 98.74737 | 36286 ft | 420 kts | 291° |
| 2026-04-13 05:24 | 35.74095 | 98.68272 | 36287 ft | 421 kts | 291° |
| 2026-04-13 05:24 | 35.76668 | 98.61800 | 36295 ft | 421 kts | 291° |
| 2026-04-13 05:25 | 35.79240 | 98.55315 | 36287 ft | 422 kts | 291° |
| 2026-04-13 05:25 | 35.81816 | 98.48809 | 36301 ft | 423 kts | 291° |
| 2026-04-13 05:26 | 35.84393 | 98.42288 | 36291 ft | 423 kts | 291° |
| 2026-04-13 05:26 | 35.86954 | 98.35797 | 36302 ft | 423 kts | 291° |
| 2026-04-13 05:27 | 35.89527 | 98.29259 | 36299 ft | 424 kts | 291° |
| 2026-04-13 05:27 | 35.92103 | 98.22707 | 36278 ft | 424 kts | 291° |
| 2026-04-13 05:28 | 35.94676 | 98.16142 | 36293 ft | 424 kts | 291° |
| 2026-04-13 05:28 | 35.97240 | 98.09584 | 36282 ft | 425 kts | 291° |
| 2026-04-13 05:29 | 35.99799 | 98.03029 | 36285 ft | 423 kts | 291° |
| 2026-04-13 05:29 | 36.02347 | 97.96488 | 36280 ft | 422 kts | 291° |
| 2026-04-13 05:30 | 36.04888 | 97.89953 | 36267 ft | 422 kts | 291° |
| 2026-04-13 05:30 | 36.07424 | 97.83418 | 36250 ft | 421 kts | 291° |
| 2026-04-13 05:31 | 36.09954 | 97.76886 | 36245 ft | 420 kts | 291° |
| 2026-04-13 05:31 | 36.12474 | 97.70367 | 36238 ft | 419 kts | 291° |
| 2026-04-13 05:32 | 36.14984 | 97.63859 | 36236 ft | 418 kts | 291° |
| 2026-04-13 05:32 | 36.17549 | 97.57397 | 36219 ft | 419 kts | 292° |
| 2026-04-13 05:33 | 36.20165 | 97.50964 | 36219 ft | 418 kts | 292° |
| 2026-04-13 05:33 | 36.22775 | 97.44527 | 36209 ft | 418 kts | 292° |
| 2026-04-13 05:34 | 36.25372 | 97.38085 | 36201 ft | 417 kts | 291° |
| 2026-04-13 05:34 | 36.27960 | 97.31642 | 36196 ft | 417 kts | 291° |
| 2026-04-13 05:35 | 36.30543 | 97.25195 | 36193 ft | 418 kts | 291° |
| 2026-04-13 05:35 | 36.33122 | 97.18748 | 36191 ft | 418 kts | 291° |
| 2026-04-13 05:36 | 36.35265 | 97.13379 | 36183 ft | 418 kts | 291° |
| 2026-04-13 05:36 | 36.38260 | 97.05864 | 36187 ft | 418 kts | 291° |
| 2026-04-13 05:37 | 36.40832 | 96.99394 | 36179 ft | 418 kts | 291° |
| 2026-04-13 05:37 | 36.43401 | 96.92921 | 36178 ft | 418 kts | 291° |
| 2026-04-13 05:38 | 36.45968 | 96.86439 | 36177 ft | 418 kts | 291° |
| 2026-04-13 05:38 | 36.48531 | 96.79954 | 36181 ft | 418 kts | 291° |
| 2026-04-13 05:39 | 36.51092 | 96.73461 | 36175 ft | 418 kts | 291° |
| 2026-04-13 05:39 | 36.53651 | 96.66961 | 36173 ft | 418 kts | 291° |
| 2026-04-13 05:40 | 36.56203 | 96.60465 | 36172 ft | 418 kts | 291° |
| 2026-04-13 05:40 | 36.58774 | 96.53971 | 36172 ft | 418 kts | 292° |
| 2026-04-13 05:41 | 36.61350 | 96.47527 | 36169 ft | 418 kts | 292° |
| 2026-04-13 05:41 | 36.63938 | 96.41039 | 36173 ft | 418 kts | 292° |
| 2026-04-13 05:42 | 36.66101 | 96.35599 | 36169 ft | 418 kts | 292° |
| 2026-04-13 05:43 | 36.70387 | 96.24786 | 36176 ft | 418 kts | 292° |
| 2026-04-13 05:43 | 36.72958 | 96.18282 | 36171 ft | 418 kts | 292° |
| 2026-04-13 05:44 | 36.75511 | 96.11813 | 36172 ft | 418 kts | 292° |
| 2026-04-13 05:44 | 36.78075 | 96.05302 | 36172 ft | 418 kts | 292° |
| 2026-04-13 05:45 | 36.80663 | 95.98801 | 36174 ft | 418 kts | 292° |
| 2026-04-13 05:45 | 36.82822 | 95.93396 | 36170 ft | 418 kts | 292° |
| 2026-04-13 05:46 | 36.85412 | 95.86899 | 36177 ft | 418 kts | 292° |
| 2026-04-13 05:46 | 36.87993 | 95.80403 | 36177 ft | 418 kts | 292° |
| 2026-04-13 05:47 | 36.90575 | 95.73888 | 36173 ft | 418 kts | 292° |
| 2026-04-13 05:47 | 36.93149 | 95.67378 | 36179 ft | 418 kts | 292° |
| 2026-04-13 05:48 | 36.95726 | 95.60852 | 36172 ft | 418 kts | 292° |
| 2026-04-13 05:48 | 36.98294 | 95.54337 | 36180 ft | 418 kts | 292° |
| 2026-04-13 05:49 | 37.00868 | 95.47816 | 36182 ft | 418 kts | 293° |
| 2026-04-13 05:49 | 37.03504 | 95.41327 | 36181 ft | 418 kts | 293° |
| 2026-04-13 05:50 | 37.06153 | 95.34841 | 36184 ft | 418 kts | 293° |
| 2026-04-13 05:50 | 37.08793 | 95.28352 | 36183 ft | 418 kts | 293° |
| 2026-04-13 05:51 | 37.11409 | 95.21893 | 36183 ft | 418 kts | 293° |
| 2026-04-13 05:51 | 37.14055 | 95.15344 | 36187 ft | 418 kts | 293° |
| 2026-04-13 05:52 | 37.16663 | 95.08872 | 36185 ft | 419 kts | 293° |
| 2026-04-13 05:52 | 37.19285 | 95.02355 | 36192 ft | 418 kts | 293° |
| 2026-04-13 05:53 | 37.21901 | 94.95836 | 36189 ft | 418 kts | 293° |
| 2026-04-13 05:53 | 37.24515 | 94.89312 | 36191 ft | 418 kts | 293° |
| 2026-04-13 05:54 | 37.27124 | 94.82784 | 36193 ft | 418 kts | 293° |
| 2026-04-13 05:54 | 37.29733 | 94.76243 | 36200 ft | 418 kts | 293° |
| 2026-04-13 05:55 | 37.32332 | 94.69715 | 36195 ft | 418 kts | 293° |
| 2026-04-13 05:55 | 37.34931 | 94.63174 | 36199 ft | 418 kts | 293° |
| 2026-04-13 05:56 | 37.37525 | 94.56631 | 36194 ft | 418 kts | 293° |
| 2026-04-13 05:56 | 37.40115 | 94.50084 | 36193 ft | 418 kts | 293° |
| 2026-04-13 05:57 | 37.42704 | 94.43526 | 36188 ft | 418 kts | 293° |
| 2026-04-13 05:57 | 37.45289 | 94.36966 | 36191 ft | 418 kts | 293° |
| 2026-04-13 05:58 | 37.47869 | 94.30402 | 36191 ft | 418 kts | 293° |
| 2026-04-13 05:58 | 37.50447 | 94.23832 | 36189 ft | 419 kts | 293° |
| 2026-04-13 05:59 | 37.53022 | 94.17255 | 36192 ft | 419 kts | 293° |
| 2026-04-13 05:59 | 37.55595 | 94.10668 | 36192 ft | 419 kts | 293° |
| 2026-04-13 06:00 | 37.58168 | 94.04068 | 36187 ft | 419 kts | 293° |
| 2026-04-13 06:00 | 37.60731 | 93.97480 | 36189 ft | 419 kts | 293° |
| 2026-04-13 06:01 | 37.63296 | 93.90873 | 36187 ft | 419 kts | 293° |
| 2026-04-13 06:01 | 37.65856 | 93.84266 | 36191 ft | 419 kts | 293° |
| 2026-04-13 06:02 | 37.68397 | 93.77692 | 36192 ft | 419 kts | 293° |
| 2026-04-13 06:02 | 37.70952 | 93.71069 | 36192 ft | 419 kts | 293° |
| 2026-04-13 06:03 | 37.73502 | 93.64443 | 36194 ft | 419 kts | 293° |
| 2026-04-13 06:03 | 37.76052 | 93.57803 | 36197 ft | 420 kts | 293° |
| 2026-04-13 06:04 | 37.78601 | 93.51152 | 36191 ft | 420 kts | 293° |
| 2026-04-13 06:04 | 37.81145 | 93.44502 | 36194 ft | 421 kts | 293° |
| 2026-04-13 06:05 | 37.83690 | 93.37831 | 36198 ft | 421 kts | 293° |
| 2026-04-13 06:05 | 37.86230 | 93.31163 | 36198 ft | 421 kts | 293° |
| 2026-04-13 06:06 | 37.88766 | 93.24487 | 36199 ft | 421 kts | 293° |
| 2026-04-13 06:06 | 37.91301 | 93.17801 | 36203 ft | 421 kts | 293° |
| 2026-04-13 06:07 | 37.93814 | 93.11158 | 36202 ft | 421 kts | 293° |
| 2026-04-13 06:07 | 37.96360 | 93.04413 | 36208 ft | 421 kts | 293° |
| 2026-04-13 06:08 | 37.98884 | 92.97715 | 36195 ft | 421 kts | 293° |
| 2026-04-13 06:08 | 38.01403 | 92.91011 | 36201 ft | 421 kts | 293° |
| 2026-04-13 06:09 | 38.03917 | 92.84309 | 36216 ft | 421 kts | 293° |
| 2026-04-13 06:09 | 38.06428 | 92.77598 | 36215 ft | 421 kts | 293° |
| 2026-04-13 06:10 | 38.08936 | 92.70881 | 36204 ft | 421 kts | 293° |
| 2026-04-13 06:10 | 38.11440 | 92.64160 | 36217 ft | 421 kts | 293° |
| 2026-04-13 06:11 | 38.13939 | 92.57442 | 36218 ft | 421 kts | 293° |
| 2026-04-13 06:11 | 38.16434 | 92.50713 | 36207 ft | 421 kts | 292° |
| 2026-04-13 06:12 | 38.18625 | 92.43832 | 36223 ft | 420 kts | 289° |
| 2026-04-13 06:12 | 38.20640 | 92.36858 | 36205 ft | 420 kts | 288° |
| 2026-04-13 06:13 | 38.22645 | 92.29923 | 36206 ft | 420 kts | 288° |
| 2026-04-13 06:13 | 38.24680 | 92.22953 | 36214 ft | 420 kts | 289° |
| 2026-04-13 06:14 | 38.26723 | 92.15982 | 36210 ft | 420 kts | 289° |
| 2026-04-13 06:14 | 38.29796 | 92.05479 | 36202 ft | 420 kts | 289° |
| 2026-04-13 06:15 | 38.31815 | 91.98553 | 36202 ft | 420 kts | 289° |
| 2026-04-13 06:15 | 38.33848 | 91.91561 | 36205 ft | 420 kts | 288° |
| 2026-04-13 06:16 | 38.35873 | 91.84578 | 36192 ft | 420 kts | 288° |
| 2026-04-13 06:16 | 38.37894 | 91.77591 | 36200 ft | 420 kts | 288° |
| 2026-04-13 06:17 | 38.39913 | 91.70594 | 36202 ft | 420 kts | 288° |
| 2026-04-13 06:17 | 38.41926 | 91.63596 | 36189 ft | 420 kts | 288° |
| 2026-04-13 06:18 | 38.43935 | 91.56594 | 36191 ft | 420 kts | 288° |
| 2026-04-13 06:18 | 38.45941 | 91.49588 | 36189 ft | 421 kts | 288° |
| 2026-04-13 06:19 | 38.47942 | 91.42577 | 36189 ft | 421 kts | 288° |
| 2026-04-13 06:19 | 38.49939 | 91.35563 | 36198 ft | 421 kts | 288° |
| 2026-04-13 06:20 | 38.51936 | 91.28532 | 36199 ft | 421 kts | 288° |
| 2026-04-13 06:20 | 38.53928 | 91.21499 | 36200 ft | 421 kts | 288° |
| 2026-04-13 06:21 | 38.55919 | 91.14449 | 36210 ft | 421 kts | 288° |
| 2026-04-13 06:21 | 38.57891 | 91.07449 | 36214 ft | 421 kts | 288° |
| 2026-04-13 06:22 | 38.59873 | 91.00396 | 36222 ft | 422 kts | 288° |
| 2026-04-13 06:22 | 38.61850 | 90.93341 | 36230 ft | 421 kts | 288° |
| 2026-04-13 06:23 | 38.63823 | 90.86280 | 36244 ft | 421 kts | 288° |
| 2026-04-13 06:23 | 38.65794 | 90.79213 | 36255 ft | 421 kts | 288° |
| 2026-04-13 06:24 | 38.67758 | 90.72149 | 36265 ft | 422 kts | 288° |
| 2026-04-13 06:24 | 38.69864 | 90.65140 | 36265 ft | 422 kts | 291° |
| 2026-04-13 06:25 | 38.72148 | 90.58201 | 36308 ft | 424 kts | 291° |
| 2026-04-13 06:25 | 38.73291 | 90.54718 | 36496 ft | 424 kts | 291° |
| 2026-04-13 06:25 | 38.74420 | 90.51248 | 36759 ft | 422 kts | 291° |
| 2026-04-13 06:26 | 38.75540 | 90.47780 | 37024 ft | 420 kts | 291° |
| 2026-04-13 06:26 | 38.76650 | 90.44330 | 37250 ft | 419 kts | 291° |
| 2026-04-13 06:26 | 38.77759 | 90.40877 | 37412 ft | 419 kts | 291° |
| 2026-04-13 06:26 | 38.78492 | 90.38591 | 37500 ft | 420 kts | 290° |
| 2026-04-13 06:27 | 38.79977 | 90.33957 | 37731 ft | 420 kts | 290° |
| 2026-04-13 06:27 | 38.81080 | 90.30495 | 37930 ft | 419 kts | 290° |
| 2026-04-13 06:27 | 38.82178 | 90.27039 | 38103 ft | 418 kts | 290° |
| 2026-04-13 06:27 | 38.83272 | 90.23588 | 38228 ft | 418 kts | 290° |
| 2026-04-13 06:28 | 38.85467 | 90.16654 | 38253 ft | 421 kts | 290° |
| 2026-04-13 06:28 | 38.87666 | 90.09694 | 38247 ft | 420 kts | 290° |
| 2026-04-13 06:29 | 38.89484 | 90.03933 | 38238 ft | 419 kts | 290° |
| 2026-04-13 06:29 | 38.92015 | 89.95889 | 38229 ft | 417 kts | 290° |
| 2026-04-13 06:30 | 38.93832 | 89.90099 | 38224 ft | 417 kts | 290° |
| 2026-04-13 06:30 | 38.96346 | 89.82071 | 38235 ft | 416 kts | 290° |
| 2026-04-13 06:31 | 38.98154 | 89.76283 | 38236 ft | 416 kts | 290° |
| 2026-04-13 06:31 | 39.00303 | 89.69386 | 38226 ft | 416 kts | 290° |
| 2026-04-13 06:32 | 39.02450 | 89.62477 | 38204 ft | 416 kts | 290° |
| 2026-04-13 06:32 | 39.04595 | 89.55558 | 38198 ft | 417 kts | 290° |
| 2026-04-13 06:33 | 39.06741 | 89.48622 | 38191 ft | 418 kts | 290° |
| 2026-04-13 06:33 | 39.08887 | 89.41664 | 38184 ft | 418 kts | 290° |
| 2026-04-13 06:34 | 39.11028 | 89.34706 | 38177 ft | 419 kts | 290° |
| 2026-04-13 06:34 | 39.13173 | 89.27718 | 38168 ft | 419 kts | 290° |
| 2026-04-13 06:35 | 39.15312 | 89.20732 | 38160 ft | 420 kts | 290° |
| 2026-04-13 06:35 | 39.17453 | 89.13718 | 38161 ft | 420 kts | 290° |
| 2026-04-13 06:36 | 39.19575 | 89.06753 | 38153 ft | 420 kts | 290° |
| 2026-04-13 06:36 | 39.21719 | 88.99694 | 38157 ft | 420 kts | 290° |
| 2026-04-13 06:37 | 39.23847 | 88.92671 | 38144 ft | 420 kts | 290° |
| 2026-04-13 06:37 | 39.25970 | 88.85647 | 38135 ft | 420 kts | 290° |
| 2026-04-13 06:38 | 39.28088 | 88.78621 | 38131 ft | 420 kts | 289° |
| 2026-04-13 06:38 | 39.30185 | 88.71649 | 38132 ft | 419 kts | 289° |
| 2026-04-13 06:39 | 39.32286 | 88.64640 | 38130 ft | 418 kts | 289° |
| 2026-04-13 06:39 | 39.34395 | 88.57590 | 38129 ft | 418 kts | 289° |
| 2026-04-13 06:40 | 39.36484 | 88.50588 | 38134 ft | 417 kts | 289° |
| 2026-04-13 06:40 | 39.38566 | 88.43588 | 38132 ft | 417 kts | 289° |
| 2026-04-13 06:41 | 39.40645 | 88.36585 | 38128 ft | 417 kts | 289° |
| 2026-04-13 06:41 | 39.42719 | 88.29578 | 38135 ft | 417 kts | 289° |
| 2026-04-13 06:42 | 39.44789 | 88.22566 | 38133 ft | 417 kts | 289° |
| 2026-04-13 06:43 | 39.47886 | 88.12040 | 38136 ft | 418 kts | 289° |
| 2026-04-13 06:43 | 39.49937 | 88.05044 | 38139 ft | 418 kts | 289° |
| 2026-04-13 06:44 | 39.52000 | 87.97993 | 38139 ft | 419 kts | 289° |
| 2026-04-13 06:44 | 39.54062 | 87.90925 | 38143 ft | 420 kts | 289° |
| 2026-04-13 06:45 | 39.56123 | 87.83839 | 38146 ft | 420 kts | 289° |
| 2026-04-13 06:45 | 39.58181 | 87.76747 | 38145 ft | 421 kts | 289° |
| 2026-04-13 06:46 | 39.60238 | 87.69636 | 38150 ft | 421 kts | 289° |
| 2026-04-13 06:46 | 39.62293 | 87.62519 | 38142 ft | 422 kts | 289° |
| 2026-04-13 06:47 | 39.64346 | 87.55387 | 38147 ft | 422 kts | 289° |
| 2026-04-13 06:47 | 39.66394 | 87.48250 | 38149 ft | 422 kts | 289° |
| 2026-04-13 06:48 | 39.68437 | 87.41116 | 38150 ft | 421 kts | 289° |
| 2026-04-13 06:48 | 39.70473 | 87.33982 | 38152 ft | 421 kts | 289° |
| 2026-04-13 06:49 | 39.72503 | 87.26855 | 38152 ft | 420 kts | 289° |
| 2026-04-13 06:49 | 39.74525 | 87.19733 | 38157 ft | 420 kts | 288° |
| 2026-04-13 06:50 | 39.76542 | 87.12608 | 38152 ft | 420 kts | 288° |
| 2026-04-13 06:50 | 39.78556 | 87.05476 | 38158 ft | 420 kts | 288° |
| 2026-04-13 06:51 | 39.80562 | 86.98350 | 38155 ft | 420 kts | 288° |
| 2026-04-13 06:51 | 39.82553 | 86.91262 | 38157 ft | 420 kts | 288° |
| 2026-04-13 06:52 | 39.84551 | 86.84126 | 38153 ft | 420 kts | 288° |
| 2026-04-13 06:52 | 39.86545 | 86.76985 | 38158 ft | 420 kts | 288° |
| 2026-04-13 06:53 | 39.88534 | 86.69844 | 38157 ft | 420 kts | 288° |
| 2026-04-13 06:53 | 39.90521 | 86.62692 | 38160 ft | 420 kts | 288° |
| 2026-04-13 06:54 | 39.92505 | 86.55525 | 38162 ft | 420 kts | 288° |
| 2026-04-13 06:54 | 39.94485 | 86.48357 | 38162 ft | 420 kts | 288° |
| 2026-04-13 06:55 | 39.96463 | 86.41177 | 38162 ft | 421 kts | 288° |
| 2026-04-13 06:55 | 39.98435 | 86.33994 | 38161 ft | 421 kts | 288° |
| 2026-04-13 06:56 | 40.00405 | 86.26805 | 38164 ft | 421 kts | 288° |
| 2026-04-13 06:56 | 40.02373 | 86.19599 | 38164 ft | 421 kts | 288° |
| 2026-04-13 06:57 | 40.04335 | 86.12395 | 38167 ft | 421 kts | 288° |
| 2026-04-13 06:57 | 40.06282 | 86.05230 | 38166 ft | 421 kts | 288° |
| 2026-04-13 06:58 | 40.08194 | 85.98007 | 38163 ft | 421 kts | 286° |
| 2026-04-13 06:58 | 40.09840 | 85.90671 | 38167 ft | 420 kts | 284° |
| 2026-04-13 06:59 | 40.11416 | 85.83324 | 38157 ft | 420 kts | 284° |
| 2026-04-13 06:59 | 40.13009 | 85.75967 | 38162 ft | 420 kts | 284° |
| 2026-04-13 07:00 | 40.14611 | 85.68627 | 38162 ft | 420 kts | 284° |
| 2026-04-13 07:00 | 40.16212 | 85.61300 | 38167 ft | 419 kts | 284° |
| 2026-04-13 07:01 | 40.17810 | 85.53970 | 38165 ft | 419 kts | 284° |
| 2026-04-13 07:01 | 40.19402 | 85.46641 | 38170 ft | 419 kts | 284° |
| 2026-04-13 07:02 | 40.20987 | 85.39313 | 38165 ft | 419 kts | 284° |
| 2026-04-13 07:02 | 40.23357 | 85.28315 | 38165 ft | 419 kts | 284° |
| 2026-04-13 07:03 | 40.24934 | 85.20963 | 38167 ft | 419 kts | 284° |
| 2026-04-13 07:03 | 40.26505 | 85.13617 | 38168 ft | 420 kts | 284° |
| 2026-04-13 07:04 | 40.28075 | 85.06252 | 38171 ft | 420 kts | 284° |
| 2026-04-13 07:04 | 40.29644 | 84.98864 | 38170 ft | 421 kts | 284° |
| 2026-04-13 07:05 | 40.31209 | 84.91469 | 38167 ft | 421 kts | 284° |
| 2026-04-13 07:05 | 40.32770 | 84.84067 | 38168 ft | 422 kts | 284° |
| 2026-04-13 07:06 | 40.34320 | 84.76694 | 38170 ft | 422 kts | 284° |
| 2026-04-13 07:06 | 40.35874 | 84.69274 | 38171 ft | 422 kts | 284° |
| 2026-04-13 07:07 | 40.37426 | 84.61840 | 38170 ft | 422 kts | 284° |
| 2026-04-13 07:07 | 40.38973 | 84.54406 | 38173 ft | 422 kts | 284° |
| 2026-04-13 07:08 | 40.40512 | 84.46976 | 38174 ft | 422 kts | 284° |
| 2026-04-13 07:08 | 40.42048 | 84.39537 | 38172 ft | 422 kts | 284° |
| 2026-04-13 07:09 | 40.43587 | 84.32057 | 38177 ft | 422 kts | 284° |
| 2026-04-13 07:09 | 40.45110 | 84.24631 | 38170 ft | 421 kts | 284° |
| 2026-04-13 07:10 | 40.46620 | 84.17246 | 38178 ft | 421 kts | 284° |
| 2026-04-13 07:10 | 40.48132 | 84.09820 | 38179 ft | 421 kts | 284° |
| 2026-04-13 07:11 | 40.49394 | 84.03607 | 38177 ft | 420 kts | 284° |
| 2026-04-13 07:11 | 40.51139 | 83.94984 | 38182 ft | 420 kts | 284° |
| 2026-04-13 07:12 | 40.52659 | 83.87576 | 38182 ft | 420 kts | 284° |
| 2026-04-13 07:12 | 40.54213 | 83.80183 | 38184 ft | 419 kts | 284° |
| 2026-04-13 07:13 | 40.55760 | 83.72809 | 38182 ft | 419 kts | 284° |
| 2026-04-13 07:13 | 40.57045 | 83.66651 | 38189 ft | 419 kts | 284° |
| 2026-04-13 07:14 | 40.58840 | 83.58003 | 38181 ft | 419 kts | 284° |
| 2026-04-13 07:14 | 40.60110 | 83.51856 | 38185 ft | 419 kts | 284° |
| 2026-04-13 07:15 | 40.61636 | 83.44449 | 38183 ft | 419 kts | 284° |
| 2026-04-13 07:15 | 40.63156 | 83.37044 | 38182 ft | 419 kts | 284° |
| 2026-04-13 07:16 | 40.64672 | 83.29630 | 38183 ft | 419 kts | 284° |
| 2026-04-13 07:16 | 40.66183 | 83.22217 | 38186 ft | 419 kts | 284° |
| 2026-04-13 07:17 | 40.67691 | 83.14792 | 38186 ft | 419 kts | 284° |
| 2026-04-13 07:17 | 40.69194 | 83.07368 | 38187 ft | 420 kts | 284° |
| 2026-04-13 07:18 | 40.70692 | 82.99935 | 38192 ft | 420 kts | 284° |
| 2026-04-13 07:18 | 40.72186 | 82.92497 | 38189 ft | 420 kts | 284° |
| 2026-04-13 07:19 | 40.73675 | 82.85058 | 38191 ft | 420 kts | 284° |
| 2026-04-13 07:19 | 40.75161 | 82.77608 | 38189 ft | 420 kts | 284° |
| 2026-04-13 07:20 | 40.76633 | 82.70201 | 38190 ft | 420 kts | 284° |
| 2026-04-13 07:20 | 40.78107 | 82.62755 | 38187 ft | 420 kts | 284° |
| 2026-04-13 07:21 | 40.79578 | 82.55296 | 38198 ft | 420 kts | 284° |
| 2026-04-13 07:21 | 40.81053 | 82.47790 | 38186 ft | 420 kts | 284° |
| 2026-04-13 07:22 | 40.82514 | 82.40327 | 38195 ft | 420 kts | 284° |
| 2026-04-13 07:22 | 40.83972 | 82.32853 | 38193 ft | 420 kts | 284° |
| 2026-04-13 07:23 | 40.85416 | 82.25423 | 38192 ft | 420 kts | 284° |
| 2026-04-13 07:23 | 40.86874 | 82.17895 | 38193 ft | 421 kts | 283° |
| 2026-04-13 07:24 | 40.88309 | 82.10452 | 38196 ft | 421 kts | 283° |
| 2026-04-13 07:24 | 40.89750 | 82.02954 | 38195 ft | 421 kts | 283° |
| 2026-04-13 07:25 | 40.91187 | 81.95450 | 38200 ft | 421 kts | 283° |
| 2026-04-13 07:25 | 40.92618 | 81.87946 | 38200 ft | 421 kts | 283° |
| 2026-04-13 07:26 | 40.94045 | 81.80438 | 38196 ft | 421 kts | 283° |
| 2026-04-13 07:26 | 40.95468 | 81.72927 | 38196 ft | 421 kts | 283° |
| 2026-04-13 07:27 | 40.96887 | 81.65419 | 38196 ft | 421 kts | 284° |
| 2026-04-13 07:27 | 40.98516 | 81.57981 | 38198 ft | 421 kts | 286° |
| 2026-04-13 07:28 | 41.00236 | 81.50579 | 38196 ft | 421 kts | 286° |
| 2026-04-13 07:28 | 41.01935 | 81.43166 | 38192 ft | 421 kts | 286° |
| 2026-04-13 07:29 | 41.03610 | 81.35737 | 38203 ft | 421 kts | 286° |
| 2026-04-13 07:29 | 41.05273 | 81.28304 | 38202 ft | 421 kts | 285° |
| 2026-04-13 07:30 | 41.06930 | 81.20864 | 38195 ft | 421 kts | 285° |
| 2026-04-13 07:30 | 41.08573 | 81.13466 | 38195 ft | 421 kts | 285° |
| 2026-04-13 07:31 | 41.10222 | 81.06013 | 38203 ft | 421 kts | 285° |
| 2026-04-13 07:31 | 41.11869 | 80.98547 | 38199 ft | 422 kts | 285° |
| 2026-04-13 07:32 | 41.13511 | 80.91081 | 38199 ft | 422 kts | 285° |
| 2026-04-13 07:32 | 41.15147 | 80.83612 | 38199 ft | 422 kts | 285° |
| 2026-04-13 07:33 | 41.16780 | 80.76136 | 38196 ft | 422 kts | 285° |
| 2026-04-13 07:34 | 41.19219 | 80.64918 | 38198 ft | 422 kts | 285° |
| 2026-04-13 07:34 | 41.20839 | 80.57436 | 38192 ft | 422 kts | 285° |
| 2026-04-13 07:35 | 41.22454 | 80.49952 | 38191 ft | 421 kts | 285° |
| 2026-04-13 07:35 | 41.24065 | 80.42461 | 38198 ft | 421 kts | 285° |
| 2026-04-13 07:36 | 41.25670 | 80.34975 | 38194 ft | 421 kts | 285° |
| 2026-04-13 07:36 | 41.27260 | 80.27491 | 38196 ft | 421 kts | 285° |
| 2026-04-13 07:37 | 41.28838 | 80.19992 | 38198 ft | 421 kts | 285° |
| 2026-04-13 07:37 | 41.30411 | 80.12499 | 38198 ft | 421 kts | 285° |
| 2026-04-13 07:38 | 41.31981 | 80.04999 | 38206 ft | 421 kts | 285° |
| 2026-04-13 07:38 | 41.33548 | 79.97496 | 38205 ft | 421 kts | 285° |
| 2026-04-13 07:39 | 41.35109 | 79.89990 | 38203 ft | 421 kts | 285° |
| 2026-04-13 07:39 | 41.36665 | 79.82483 | 38212 ft | 421 kts | 284° |
| 2026-04-13 07:40 | 41.38215 | 79.74972 | 38212 ft | 421 kts | 284° |
| 2026-04-13 07:40 | 41.39762 | 79.67454 | 38215 ft | 421 kts | 284° |
| 2026-04-13 07:41 | 41.41305 | 79.59931 | 38217 ft | 421 kts | 284° |
| 2026-04-13 07:41 | 41.42845 | 79.52391 | 38227 ft | 421 kts | 284° |
| 2026-04-13 07:42 | 41.44367 | 79.44909 | 38229 ft | 421 kts | 284° |
| 2026-04-13 07:42 | 41.45896 | 79.37372 | 38237 ft | 421 kts | 284° |
| 2026-04-13 07:43 | 41.47420 | 79.29825 | 38247 ft | 421 kts | 284° |
| 2026-04-13 07:43 | 41.48940 | 79.22278 | 38265 ft | 421 kts | 284° |
| 2026-04-13 07:44 | 41.50453 | 79.14733 | 38268 ft | 422 kts | 284° |
| 2026-04-13 07:44 | 41.51973 | 79.07125 | 38201 ft | 424 kts | 284° |
| 2026-04-13 07:45 | 41.53482 | 78.99536 | 38199 ft | 422 kts | 284° |
| 2026-04-13 07:45 | 41.54985 | 78.91972 | 38210 ft | 422 kts | 284° |
| 2026-04-13 07:46 | 41.56494 | 78.84388 | 38217 ft | 422 kts | 285° |
| 2026-04-13 07:46 | 41.58744 | 78.77127 | 38233 ft | 424 kts | 293° |
| 2026-04-13 07:47 | 41.61265 | 78.69979 | 38227 ft | 426 kts | 294° |
| 2026-04-13 07:47 | 41.63784 | 78.62794 | 38220 ft | 428 kts | 293° |
| 2026-04-13 07:48 | 41.66271 | 78.55618 | 38217 ft | 428 kts | 293° |
| 2026-04-13 07:48 | 41.68765 | 78.48372 | 38222 ft | 429 kts | 293° |
| 2026-04-13 07:49 | 41.71252 | 78.41120 | 38218 ft | 429 kts | 293° |
| 2026-04-13 07:49 | 41.73740 | 78.33847 | 38217 ft | 429 kts | 293° |
| 2026-04-13 07:50 | 41.76223 | 78.26570 | 38229 ft | 430 kts | 293° |
| 2026-04-13 07:50 | 41.78711 | 78.19260 | 38219 ft | 432 kts | 293° |
| 2026-04-13 07:51 | 41.81203 | 78.11920 | 38206 ft | 433 kts | 293° |
| 2026-04-13 07:51 | 41.83270 | 78.05817 | 38208 ft | 433 kts | 293° |
| 2026-04-13 07:52 | 41.86169 | 77.97235 | 38207 ft | 432 kts | 293° |
| 2026-04-13 07:52 | 41.88643 | 77.89891 | 38194 ft | 431 kts | 293° |
| 2026-04-13 07:53 | 41.91107 | 77.82553 | 38193 ft | 431 kts | 292° |
| 2026-04-13 07:53 | 41.93568 | 77.75204 | 38185 ft | 431 kts | 292° |
| 2026-04-13 07:54 | 41.96024 | 77.67855 | 38167 ft | 431 kts | 292° |
| 2026-04-13 07:54 | 41.98056 | 77.61755 | 38167 ft | 431 kts | 293° |
| 2026-04-13 07:55 | 42.00905 | 77.53184 | 38153 ft | 429 kts | 293° |
| 2026-04-13 07:55 | 42.03331 | 77.45865 | 38172 ft | 428 kts | 292° |
| 2026-04-13 07:56 | 42.05342 | 77.39781 | 38160 ft | 428 kts | 292° |
| 2026-04-13 07:56 | 42.07757 | 77.32459 | 38143 ft | 428 kts | 292° |
| 2026-04-13 07:57 | 42.10167 | 77.25131 | 38159 ft | 428 kts | 292° |
| 2026-04-13 07:57 | 42.12573 | 77.17794 | 38158 ft | 429 kts | 292° |
| 2026-04-13 07:58 | 42.14981 | 77.10432 | 38145 ft | 430 kts | 292° |
| 2026-04-13 07:58 | 42.17389 | 77.03052 | 38140 ft | 430 kts | 292° |
| 2026-04-13 07:59 | 42.19796 | 76.95653 | 38133 ft | 431 kts | 292° |
| 2026-04-13 07:59 | 42.22199 | 76.88245 | 38130 ft | 431 kts | 292° |
| 2026-04-13 08:00 | 42.24584 | 76.80874 | 38130 ft | 431 kts | 292° |
| 2026-04-13 08:00 | 42.26996 | 76.73401 | 38135 ft | 432 kts | 292° |
| 2026-04-13 08:01 | 42.29373 | 76.66013 | 38135 ft | 432 kts | 292° |
| 2026-04-13 08:01 | 42.31760 | 76.58574 | 38135 ft | 431 kts | 292° |
| 2026-04-13 08:01 | 42.32952 | 76.54851 | 37880 ft | 436 kts | 292° |
| 2026-04-13 08:02 | 42.34157 | 76.51080 | 37368 ft | 436 kts | 292° |
| 2026-04-13 08:02 | 42.35357 | 76.47325 | 36778 ft | 433 kts | 292° |
| 2026-04-13 08:02 | 42.36547 | 76.43593 | 36157 ft | 432 kts | 292° |
| 2026-04-13 08:02 | 42.37738 | 76.39854 | 35499 ft | 433 kts | 292° |
| 2026-04-13 08:03 | 42.38926 | 76.36117 | 34826 ft | 434 kts | 292° |
| 2026-04-13 08:03 | 42.40119 | 76.32361 | 34143 ft | 435 kts | 292° |
| 2026-04-13 08:03 | 42.41314 | 76.28593 | 33320 ft | 437 kts | 292° |
| 2026-04-13 08:03 | 42.42510 | 76.24815 | 32555 ft | 437 kts | 291° |
| 2026-04-13 08:04 | 42.43707 | 76.21029 | 31807 ft | 438 kts | 291° |
| 2026-04-13 08:04 | 42.44906 | 76.17235 | 31038 ft | 439 kts | 291° |
| 2026-04-13 08:04 | 42.46105 | 76.13430 | 30255 ft | 440 kts | 291° |
| 2026-04-13 08:04 | 42.47306 | 76.09619 | 29317 ft | 442 kts | 291° |
| 2026-04-13 08:05 | 42.48510 | 76.05790 | 28652 ft | 438 kts | 291° |
| 2026-04-13 08:05 | 42.49697 | 76.02012 | 27999 ft | 433 kts | 291° |
| 2026-04-13 08:05 | 42.50870 | 75.98277 | 27399 ft | 428 kts | 291° |
| 2026-04-13 08:05 | 42.52026 | 75.94584 | 26802 ft | 424 kts | 291° |
| 2026-04-13 08:06 | 42.53171 | 75.90920 | 26209 ft | 420 kts | 291° |
| 2026-04-13 08:06 | 42.54305 | 75.87286 | 25634 ft | 417 kts | 291° |
| 2026-04-13 08:06 | 42.55428 | 75.83684 | 25054 ft | 413 kts | 291° |
| 2026-04-13 08:06 | 42.56543 | 75.80103 | 24482 ft | 411 kts | 291° |
| 2026-04-13 08:07 | 42.57649 | 75.76544 | 23919 ft | 408 kts | 291° |
| 2026-04-13 08:07 | 42.58750 | 75.72998 | 23270 ft | 406 kts | 291° |
| 2026-04-13 08:07 | 42.59842 | 75.69476 | 22633 ft | 404 kts | 291° |
| 2026-04-13 08:07 | 42.60926 | 75.65975 | 22055 ft | 400 kts | 291° |
| 2026-04-13 08:08 | 42.61997 | 75.62514 | 21483 ft | 396 kts | 291° |
| 2026-04-13 08:08 | 42.63058 | 75.59078 | 20911 ft | 393 kts | 291° |
| 2026-04-13 08:08 | 42.64107 | 75.55677 | 20364 ft | 389 kts | 291° |
| 2026-04-13 08:08 | 42.65150 | 75.52293 | 19817 ft | 387 kts | 291° |
| 2026-04-13 08:09 | 42.66183 | 75.48934 | 19273 ft | 385 kts | 291° |
| 2026-04-13 08:09 | 42.67212 | 75.45589 | 18720 ft | 382 kts | 291° |
| 2026-04-13 08:09 | 42.68219 | 75.42311 | 18160 ft | 380 kts | 291° |
| 2026-04-13 08:09 | 42.69234 | 75.39001 | 17551 ft | 378 kts | 291° |
| 2026-04-13 08:10 | 42.70247 | 75.35725 | 16983 ft | 375 kts | 293° |
| 2026-04-13 08:10 | 42.71468 | 75.32550 | 16439 ft | 374 kts | 299° |
| 2026-04-13 08:10 | 42.72814 | 75.29533 | 15913 ft | 374 kts | 301° |
| 2026-04-13 08:10 | 42.74202 | 75.26541 | 15381 ft | 373 kts | 301° |
| 2026-04-13 08:11 | 42.75586 | 75.23552 | 14853 ft | 373 kts | 301° |
| 2026-04-13 08:11 | 42.76955 | 75.20553 | 14326 ft | 372 kts | 301° |
| 2026-04-13 08:11 | 42.78304 | 75.17560 | 13790 ft | 371 kts | 300° |
| 2026-04-13 08:12 | 42.80938 | 75.11641 | 12673 ft | 364 kts | 300° |
| 2026-04-13 08:12 | 42.82251 | 75.08672 | 12149 ft | 359 kts | 300° |
| 2026-04-13 08:12 | 42.83532 | 75.05769 | 11634 ft | 355 kts | 300° |
| 2026-04-13 08:12 | 42.84796 | 75.02899 | 11144 ft | 352 kts | 300° |
| 2026-04-13 08:13 | 42.86048 | 75.00054 | 10645 ft | 348 kts | 300° |
| 2026-04-13 08:13 | 42.87256 | 74.97309 | 10156 ft | 336 kts | 300° |
| 2026-04-13 08:13 | 42.88427 | 74.94644 | 9970 ft | 315 kts | 300° |
| 2026-04-13 08:13 | 42.89511 | 74.92177 | 9921 ft | 293 kts | 300° |
| 2026-04-13 08:14 | 42.90528 | 74.89860 | 9772 ft | 276 kts | 299° |
| 2026-04-13 08:14 | 42.91488 | 74.87668 | 9500 ft | 266 kts | 299° |
| 2026-04-13 08:14 | 42.92436 | 74.85501 | 8999 ft | 266 kts | 300° |
| 2026-04-13 08:14 | 42.93470 | 74.83433 | 8513 ft | 264 kts | 314° |
| 2026-04-13 08:15 | 42.94865 | 74.81823 | 8043 ft | 263 kts | 320° |
| 2026-04-13 08:15 | 42.96307 | 74.80271 | 7572 ft | 263 kts | 321° |
| 2026-04-13 08:15 | 42.97726 | 74.78739 | 7248 ft | 256 kts | 321° |
| 2026-04-13 08:15 | 42.99104 | 74.77237 | 6904 ft | 252 kts | 321° |
| 2026-04-13 08:16 | 43.00450 | 74.75760 | 6691 ft | 244 kts | 321° |
| 2026-04-13 08:16 | 43.01783 | 74.74287 | 6313 ft | 243 kts | 321° |
| 2026-04-13 08:16 | 43.03092 | 74.72837 | 5943 ft | 242 kts | 321° |
| 2026-04-13 08:16 | 43.04399 | 74.71397 | 5572 ft | 241 kts | 321° |
| 2026-04-13 08:17 | 43.05675 | 74.69929 | 5211 ft | 240 kts | 315° |
| 2026-04-13 08:17 | 43.06769 | 74.68210 | 4825 ft | 239 kts | 310° |
| 2026-04-13 08:17 | 43.07715 | 74.66395 | 4482 ft | 239 kts | 293° |
| 2026-04-13 08:17 | 43.08000 | 74.64138 | 4088 ft | 237 kts | 272° |
| 2026-04-13 08:18 | 43.07919 | 74.61961 | 3749 ft | 220 kts | 266° |
| 2026-04-13 08:18 | 43.07718 | 74.59957 | 3470 ft | 206 kts | 263° |
| 2026-04-13 08:18 | 43.07468 | 74.58105 | 3221 ft | 192 kts | 261° |
| 2026-04-13 08:18 | 43.07243 | 74.56364 | 3027 ft | 177 kts | 262° |
| 2026-04-13 08:19 | 43.07032 | 74.54758 | 2694 ft | 165 kts | 260° |
| 2026-04-13 08:19 | 43.06821 | 74.53282 | 2514 ft | 151 kts | 259° |
| 2026-04-13 08:19 | 43.06634 | 74.51915 | 2322 ft | 144 kts | 260° |
| 2026-04-13 08:19 | 43.06482 | 74.50572 | 2160 ft | 142 kts | 261° |
| 2026-04-13 08:20 | 43.06319 | 74.49274 | 2084 ft | 135 kts | 260° |
| 2026-04-13 08:20 | 43.06179 | 74.48167 | 2070 ft | 86 kts | 260° |
| 2026-04-13 08:20 | 43.06115 | 74.47653 | 2068 ft | 41 kts | 259° |
| 2026-04-13 08:20 | 43.06066 | 74.47288 | 2068 ft | 37 kts | 259° |
| 2026-04-13 08:21 | 43.05956 | 74.47113 | 2069 ft | 11 kts | 172° |
| 2026-04-13 08:21 | 43.05897 | 74.47127 | 2068 ft | 6 kts | 169° |
| 2026-04-13 08:21 | 43.05870 | 74.47135 | 2068 ft | 2 kts | 167° |
| 2026-04-13 08:21 | 43.05855 | 74.47139 | 2068 ft | 2 kts | 166° |
| 2026-04-13 08:22 | 43.05830 | 74.47147 | 2068 ft | 8 kts | 169° |
| 2026-04-13 08:22 | 43.05729 | 74.47171 | 2068 ft | 21 kts | 172° |
| 2026-04-13 08:22 | 43.05634 | 74.47184 | 2068 ft | 8 kts | 196° |
| 2026-04-13 08:22 | 43.05599 | 74.47093 | 2068 ft | 14 kts | 260° |
| 2026-04-13 08:23 | 43.05582 | 74.46981 | 2068 ft | 12 kts | 242° |
| 2026-04-13 08:23 | 43.05520 | 74.46955 | 2068 ft | 0 kts | 171° |
| 2026-04-13 08:23 | 43.05512 | 74.46957 | 2068 ft | 1 kts | 168° |
| 2026-04-13 08:23 | 43.05503 | 74.46960 | 2068 ft | 1 kts | 169° |
| 2026-04-13 08:24 | 43.05496 | 74.46962 | 2068 ft | 1 kts | 169° |
| 2026-04-13 08:24 | 43.05491 | 74.46963 | 2068 ft | 0 kts | 169° |